AGROMETEOROLOŠKI PORTAL

vinorodna pokrajina

Temelj dobrega kmetovanja

Pregled podatkov za lokacijo Jeprca DRSI, meteorološka postaja 3

Pregled senzorjev na lokaciji

ID Ime Zadnja
vrednost
Datum in čas
meritve
(lokalni čas)
Tip
senzorja
6156 Zračni tlak (hPa) 970 hPa 25.9.2022 21:30 DRSI
6153 Relativna zračna vlaga (2 m) (% RH) 97 % RH 25.9.2022 21:30 DRSI
6152 Temperatura (2 m) (°C) 12,3 °C 25.9.2022 21:30 DRSI
6155 Smer vetra (2 m) (°) 301 ° 25.9.2022 21:30 DRSI
6154 Hitrost vetra (2 m) (km/h) 2 km/h 25.9.2022 21:30 DRSI

Pregled podatkov zadnjih 24 ur

Zap.
št.
Datum in čas
(lokalni čas)
Jeprca DRSI
Zračni
tlak
Relativna
zračna
vlaga
(2
m)
Temperatura
(2
m)
Smer
vetra
(2
m)
Hitrost
vetra
(2
m)
1 25.9.2022 21:30 969,5 97 12,3 300,7 2,2
2 25.9.2022 21:00 969,5 97 12,2 201,6 1,7
3 25.9.2022 20:30 969,5 97 12,4 165,6 2,2
4 25.9.2022 20:00 969,5 97 12,3 198,2 1,9
5 25.9.2022 19:30 969,5 97 12,4 80,4 1,4
6 25.9.2022 19:00 969,5 96,7 12,5 70,6 2
7 25.9.2022 18:30 969,5 94,7 12,7 268,7 1,9
8 25.9.2022 18:00 969,5 94,3 12,7 162 2,6
9 25.9.2022 17:30 969,9 94,3 12,6 125,6 1,1
10 25.9.2022 17:00 970,5 94,3 12,6 120,9 1,3
11 25.9.2022 16:30 970,5 94,3 12,6 247,1 1,7
12 25.9.2022 16:00 970,5 95 12,5 200,3 3
13 25.9.2022 15:30 970,5 94 12,4 213,7 2,6
14 25.9.2022 15:00 971,5 95,3 12,3 222,3 3,8
15 25.9.2022 14:30 971,5 95,7 12,1 271 4,2
16 25.9.2022 14:00 971,5 96 11,9 288,1 4,3
17 25.9.2022 13:30 971,5 96 11,9 278,3 3,8
18 25.9.2022 13:00 971,5 96 11,8 235,9 5,2
19 25.9.2022 12:30 971,5 94,7 11,8 236 4,1
20 25.9.2022 12:00 971,5 94,7 11,7 148,9 1,9
21 25.9.2022 11:30 971,5 95,3 11,6 133,5 2,2
22 25.9.2022 11:00 971,5 96 11,6 61,7 2,5
23 25.9.2022 10:30 971,5 96,3 11,5 161,3 1,7
24 25.9.2022 10:00 971,5 97 11,5 143 2,6
25 25.9.2022 09:30 971,5 96 11,7 145 6,6
26 25.9.2022 09:00 971,5 97 11,9 151,4 2
27 25.9.2022 08:30 971,5 97 11,8 126,9 2,3
28 25.9.2022 08:00 971,5 96,7 11,8 144,8 1,4
29 25.9.2022 07:30 971,5 97 11,6 113,5 1,1
30 25.9.2022 07:00 972,1 98 11,9 144,9 1,9
31 25.9.2022 06:30 972,4 97,3 11,9 153,3 3,4
32 25.9.2022 06:00 972,4 97 12 150,2 2,8
33 25.9.2022 05:30 972,4 97 12 144 2,3
34 25.9.2022 05:00 972,4 96 11,8 117,8 1,7
35 25.9.2022 04:30 972,4 95,3 12,1 130,7 1,6
36 25.9.2022 04:00 973,1 94 12,3 41 1,9
37 25.9.2022 03:30 973,4 95,7 12,3 298,1 2,2
38 25.9.2022 03:00 973,4 96 12,2 358,1 3,2
39 25.9.2022 02:30 973,4 94,3 12,4 7,3 3,7
40 25.9.2022 02:00 974 95,3 12,3 288,4 2
41 25.9.2022 01:30 973,4 97 12,2 320,5 4,2
42 25.9.2022 01:00 973,7 96 12,2 150,9 3,6
43 25.9.2022 00:30 974,3 95,7 12,1 137,6 2,2
44 25.9.2022 00:00 974,3 95 12,3 130,7 2,2
45 24.9.2022 23:30 974,3 91,7 12,5 164,4 4,3